• Join FlightAware (Why Join?)
  • Login
  • US Flag 
10:37PM EDT


 

Airport Tracker/Info


-or-


 

Live Flight TrackerFlight Track Log ✈ N6345B ✈ 16-Aug-2013 ✈ KMLB - KDAB

Flight Track Log - Related Links

Times and Time Zones

All times are in EDT time to prevent confusion due to time zone crossing. See the N6345B flight status page for this flight to view local times or setup timezone preferences in your user account.

Time Position Orientation Groundspeed Altitude Reporting Facility
EDT Latitude Longitude Course Direction KTS MPH feet Rate Location/Type
08:57PM 28.1167 -80.6333 360° North 68 78 800  Level Orlando TRACON
08:58PM 28.1167 -80.6000 90° East 83 96 1,500 600 Climbing Orlando TRACON
08:59PM 28.1167 -80.5833 90° East 82 94 2,000 480 Climbing Orlando TRACON
09:00PM 28.1333 -80.5500 60° Northeast 84 97 2,500 540 Climbing Orlando TRACON
09:01PM 28.1333 -80.5333 90° East 89 102 3,100 540 Climbing Orlando TRACON
09:02PM 28.1500 -80.5333 360° North 92 106 3,600 480 Climbing Orlando TRACON
09:03PM 28.1667 -80.5500 319° Northwest 93 107 4,100 480 Climbing Orlando TRACON
09:04PM 28.2000 -80.5667 336° Northwest 91 105 4,700 420 Climbing Orlando TRACON
09:05PM 28.2167 -80.5833 319° Northwest 94 108 5,000 120 Climbing Orlando TRACON
09:06PM 28.2500 -80.6000 336° Northwest 114 131 5,000  Level Orlando TRACON
09:07PM 28.2667 -80.6167 319° Northwest 88 101 5,000  Level Orlando TRACON
09:08PM 28.2833 -80.6333 319° Northwest 99 114 5,000  Level Orlando TRACON
09:09PM 28.3000 -80.6500 319° Northwest 94 108 5,000  Level Orlando TRACON
09:10PM 28.3333 -80.6667 336° Northwest 96 110 5,000  Level Orlando TRACON
09:11PM 28.3500 -80.6833 319° Northwest 100 115 5,000  Level Orlando TRACON
09:12PM 28.3833 -80.7000 336° Northwest 100 115 5,000  Level Orlando TRACON
09:13PM 28.4000 -80.7167 319° Northwest 93 107 5,000  Level Orlando TRACON
09:14PM 28.4167 -80.7333 319° Northwest 91 105 5,000  Level Orlando TRACON
09:15PM 28.4333 -80.7500 319° Northwest 96 110 5,000  Level Orlando TRACON
09:16PM 28.4667 -80.7667 336° Northwest 96 110 5,000  Level Orlando TRACON
09:17PM 28.4833 -80.7667 360° North 94 108 5,000  Level Orlando TRACON
09:18PM 28.5167 -80.7833 336° Northwest 94 108 5,000  Level Orlando TRACON
09:19PM 28.5333 -80.8000 319° Northwest 93 107 5,000  Level Orlando TRACON
09:20PM 28.5500 -80.8167 319° Northwest 96 110 5,000  Level Orlando TRACON
09:21PM 28.5833 -80.8333 336° Northwest 98 113 5,000  Level Orlando TRACON
09:22PM 28.6000 -80.8333 360° North 98 113 5,000  Level Orlando TRACON
09:23PM 28.6333 -80.8500 336° Northwest 98 113 5,000  Level Orlando TRACON
09:24PM 28.6500 -80.8500 360° North 100 115 5,000  Level Orlando TRACON
09:25PM 28.6833 -80.8667 336° Northwest 101 116 5,000  Level Orlando TRACON
09:26PM 28.7167 -80.8833 336° Northwest 100 115 5,000  Level Orlando TRACON
09:28PM 28.7564 -80.8986 341° North 100 115 5,000  Level Jacksonville Center
09:29PM 28.7817 -80.9100 338° Northwest 100 115 5,000  Level Jacksonville Center
09:30PM 28.8108 -80.9211 342° North 99 114 5,000  Level Jacksonville Center
09:31PM 28.8383 -80.9300 344° North 100 115 5,000  Level Jacksonville Center
09:32PM 28.8656 -80.9414 340° North 100 115 5,000 -60 Level Jacksonville Center
09:33PM 28.8908 -80.9506 342° North 101 116 4,900 -300 Descending Jacksonville Center
09:34PM 28.9181 -80.9642 336° Northwest 102 117 4,400 -540 Descending Jacksonville Center
09:35PM 28.9433 -80.9731 343° North 99 114 3,900 -600 Descending Jacksonville Center
09:36PM 28.9706 -80.9844 340° North 98 113 3,300 -480 Descending Jacksonville Center
09:37PM 28.9936 -80.9936 341° North 92 106 3,000 -180 Descending Jacksonville Center
09:38PM 29.0169 -81.0097 329° Northwest 89 102 3,000  Level Jacksonville Center
09:39PM 29.0358 -81.0236 327° Northwest 88 101 3,000  Level Jacksonville Center
09:40PM 29.0569 -81.0422 322° Northwest 89 102 3,000  Level Jacksonville Center
09:41PM 29.0758 -81.0561 327° Northwest 89 102 3,000  Level Jacksonville Center
09:42PM 29.0742 -81.0822 266° West 87 100 3,000  Level Jacksonville Center
09:43PM 29.0706 -81.1108 262° West 90 104 3,000  Level Jacksonville Center
09:44PM 29.0667 -81.1442 262° West 101 116 3,000  Level Jacksonville Center
09:45PM 29.0650 -81.1728 266° West 96 110 3,000 -300 Level Jacksonville Center
09:46PM 29.0922 -81.1817 344° North 99 114 2,500 -540 Descending Jacksonville Center
09:47PM 29.1172 -81.1811 North 94 108 2,000 -480 Descending Jacksonville Center
09:48PM 29.1381 -81.1642 35° Northeast 95 109 1,600 -480 Descending Jacksonville Center
09:49PM 29.1481 -81.1356 68° East 102 117 1,100 -600 Descending Jacksonville Center
09:50PM 29.1600 -81.1044 66° East 104 120 500 -600 Descending Jacksonville Center
09:52PM 29.1645 -81.0676 82° East  Level FlightAware Approximate
09:59PM 29.1667 -81.0500 64° Northeast  Level FlightAware Approximate
10:00PM 29.1799 -81.0581 64° Northeast  Level Estimated
10:01PM 29.1799 -81.0581 64° Northeast  Level Estimated